TimeCDT,TemperatureF,Dew PointF,Humidity,Sea Level PressureIn,VisibilityMPH,Wind Direction,Wind SpeedMPH,Gust SpeedMPH,PrecipitationIn,Events,Conditions,WindDirDegrees,DateUTC
12:53 AM,64.9,61.0,87,30.14,10.0,Calm,Calm,-,N/A,,Clear,0,2013-09-05 05:53:00
1:53 AM,64.0,61.0,90,30.13,10.0,Calm,Calm,-,N/A,,Clear,0,2013-09-05 06:53:00
2:53 AM,64.0,61.0,90,30.12,10.0,Calm,Calm,-,N/A,,Clear,0,2013-09-05 07:53:00
3:53 AM,62.1,60.1,93,30.12,9.0,Calm,Calm,-,N/A,,Clear,0,2013-09-05 08:53:00
4:53 AM,61.0,59.0,93,30.13,10.0,Calm,Calm,-,N/A,,Partly Cloudy,0,2013-09-05 09:53:00
5:53 AM,60.1,57.9,93,30.14,10.0,Calm,Calm,-,N/A,,Scattered Clouds,0,2013-09-05 10:53:00
6:53 AM,61.0,57.9,90,30.17,10.0,Calm,Calm,-,N/A,Fog,Patches of Fog,0,2013-09-05 11:53:00
7:53 AM,68.0,63.0,84,30.18,10.0,NNE,3.5,-,N/A,,Mostly Cloudy,30,2013-09-05 12:53:00
8:53 AM,71.1,63.0,75,30.18,10.0,NE,3.5,-,N/A,,Mostly Cloudy,50,2013-09-05 13:53:00
9:53 AM,75.0,63.0,66,30.18,10.0,ENE,4.6,-,N/A,,Overcast,60,2013-09-05 14:53:00
10:53 AM,78.1,62.1,58,30.19,10.0,East,5.8,-,N/A,,Mostly Cloudy,90,2013-09-05 15:53:00
11:53 AM,80.1,60.1,50,30.18,10.0,East,4.6,-,N/A,,Mostly Cloudy,80,2013-09-05 16:53:00
12:53 PM,82.0,60.1,47,30.17,10.0,NE,3.5,-,N/A,,Mostly Cloudy,40,2013-09-05 17:53:00
1:53 PM,82.9,61.0,47,30.16,10.0,NNE,8.1,-,N/A,,Scattered Clouds,30,2013-09-05 18:53:00
2:53 PM,84.9,60.1,43,30.14,10.0,NE,8.1,-,N/A,,Scattered Clouds,40,2013-09-05 19:53:00
3:53 PM,84.9,60.1,43,30.13,10.0,Variable,4.6,-,N/A,,Scattered Clouds,0,2013-09-05 20:53:00
4:53 PM,84.0,61.0,46,30.13,10.0,NE,8.1,-,N/A,,Scattered Clouds,40,2013-09-05 21:53:00
5:53 PM,82.9,61.0,47,30.13,10.0,NE,4.6,-,N/A,,Scattered Clouds,50,2013-09-05 22:53:00
6:53 PM,79.0,55.9,45,30.12,10.0,East,5.8,-,N/A,,Scattered Clouds,80,2013-09-05 23:53:00
7:53 PM,75.9,60.1,58,30.13,10.0,Calm,Calm,-,N/A,,Partly Cloudy,0,2013-09-06 00:53:00
8:53 PM,75.9,61.0,60,30.14,10.0,Calm,Calm,-,N/A,,Partly Cloudy,0,2013-09-06 01:53:00
9:53 PM,73.0,63.0,71,30.15,10.0,NE,4.6,-,N/A,,Scattered Clouds,40,2013-09-06 02:53:00
10:53 PM,71.1,64.0,78,30.15,10.0,NE,3.5,-,N/A,,Clear,40,2013-09-06 03:53:00
11:53 PM,68.0,63.0,84,30.16,10.0,Calm,Calm,-,N/A,,Clear,0,2013-09-06 04:53:00